createdAt,value
2018-08-31T00:00:57.980Z,958.76
2018-08-31T00:01:57.972Z,958.75
2018-08-31T00:02:57.960Z,958.71
2018-08-31T00:03:57.952Z,958.73
2018-08-31T00:04:57.943Z,958.76
2018-08-31T00:05:57.934Z,958.77
2018-08-31T00:06:57.924Z,958.82
2018-08-31T00:07:57.915Z,958.84
2018-08-31T00:08:57.906Z,958.82
2018-08-31T00:09:57.895Z,958.86
2018-08-31T00:10:57.886Z,958.86
2018-08-31T00:11:57.884Z,958.86
2018-08-31T00:12:57.868Z,958.85
2018-08-31T00:13:57.857Z,958.84
2018-08-31T00:14:57.849Z,958.82
2018-08-31T00:15:57.839Z,958.77
2018-08-31T00:16:57.830Z,958.79
2018-08-31T00:17:57.820Z,958.73
2018-08-31T00:18:57.811Z,958.67
2018-08-31T00:19:57.802Z,958.66
2018-08-31T00:20:57.791Z,958.59
2018-08-31T00:21:57.781Z,958.57
2018-08-31T00:22:57.773Z,958.51
2018-08-31T00:23:57.763Z,958.47
2018-08-31T00:24:57.756Z,958.46
2018-08-31T00:25:57.744Z,958.46
2018-08-31T00:26:57.735Z,958.45
2018-08-31T00:27:57.726Z,958.46
2018-08-31T00:28:57.714Z,958.48
2018-08-31T00:29:57.704Z,958.5
2018-08-31T00:30:57.696Z,958.52
2018-08-31T00:31:57.692Z,958.51
2018-08-31T00:32:57.675Z,958.54
2018-08-31T00:33:57.666Z,958.54
2018-08-31T00:34:57.658Z,958.53
2018-08-31T00:35:57.646Z,958.57
2018-08-31T00:36:57.637Z,958.52
2018-08-31T00:37:57.627Z,958.56
2018-08-31T00:38:57.618Z,958.5
2018-08-31T00:39:57.607Z,958.52
2018-08-31T00:40:57.597Z,958.5
2018-08-31T00:41:57.589Z,958.51
2018-08-31T00:42:57.580Z,958.51
2018-08-31T00:43:57.569Z,958.53
2018-08-31T00:44:57.558Z,958.53
2018-08-31T00:45:57.551Z,958.52
2018-08-31T00:46:57.539Z,958.53
2018-08-31T00:47:57.529Z,958.52
2018-08-31T00:48:57.522Z,958.47
2018-08-31T00:49:57.510Z,958.5
2018-08-31T00:50:57.501Z,958.49
2018-08-31T00:51:57.491Z,958.51
2018-08-31T00:52:57.481Z,958.53
2018-08-31T00:53:57.472Z,958.54
2018-08-31T00:54:57.461Z,958.57
2018-08-31T00:55:57.464Z,958.63
2018-08-31T00:56:57.443Z,958.64
2018-08-31T00:57:57.433Z,958.61
2018-08-31T00:58:57.423Z,958.63
2018-08-31T00:59:57.415Z,958.67
2018-08-31T01:00:57.405Z,958.67
2018-08-31T01:01:57.395Z,958.68
2018-08-31T01:02:57.386Z,958.66
2018-08-31T01:03:57.375Z,958.71
2018-08-31T01:04:57.367Z,958.71
2018-08-31T01:05:57.358Z,958.69
2018-08-31T01:06:57.348Z,958.69
2018-08-31T01:07:57.338Z,958.68
2018-08-31T01:08:57.329Z,958.65
2018-08-31T01:09:57.321Z,958.64
2018-08-31T01:10:57.312Z,958.59
2018-08-31T01:11:57.304Z,958.53
2018-08-31T01:12:57.294Z,958.49
2018-08-31T01:13:57.285Z,958.41
2018-08-31T01:14:57.276Z,958.43
2018-08-31T01:15:57.307Z,958.44
2018-08-31T01:16:57.257Z,958.45
2018-08-31T01:17:57.249Z,958.49
2018-08-31T01:18:57.242Z,958.48
2018-08-31T01:19:57.229Z,958.49
2018-08-31T01:20:57.221Z,958.48
2018-08-31T01:21:57.213Z,958.53
2018-08-31T01:22:57.203Z,958.52
2018-08-31T01:23:57.194Z,958.5
2018-08-31T01:24:57.186Z,958.52
2018-08-31T01:25:57.176Z,958.52
2018-08-31T01:26:57.167Z,958.51
2018-08-31T01:27:57.164Z,958.55
2018-08-31T01:28:57.150Z,958.58
2018-08-31T01:29:57.142Z,958.55
2018-08-31T01:30:57.132Z,958.59
2018-08-31T01:31:57.125Z,958.6
2018-08-31T01:32:57.116Z,958.62
2018-08-31T01:33:57.106Z,958.61
2018-08-31T01:34:57.097Z,958.66
2018-08-31T01:35:57.089Z,958.66
2018-08-31T01:36:57.081Z,958.65
2018-08-31T01:37:57.071Z,958.68
2018-08-31T01:38:57.063Z,958.67
2018-08-31T01:39:57.054Z,958.65
2018-08-31T01:40:57.046Z,958.71
2018-08-31T01:41:57.037Z,958.69
2018-08-31T01:42:57.029Z,958.7
2018-08-31T01:43:57.020Z,958.65
2018-08-31T01:44:57.010Z,958.67
2018-08-31T01:45:57.003Z,958.69
2018-08-31T01:46:56.993Z,958.74
2018-08-31T01:47:56.985Z,958.69
2018-08-31T01:48:56.975Z,958.72
2018-08-31T01:49:56.968Z,958.73
2018-08-31T01:50:56.959Z,958.66
2018-08-31T01:51:56.953Z,958.69
2018-08-31T01:52:56.942Z,958.71
2018-08-31T01:53:56.935Z,958.71
2018-08-31T01:54:56.927Z,958.75
2018-08-31T01:55:56.916Z,958.72
2018-08-31T01:56:56.909Z,958.73
2018-08-31T01:57:56.902Z,958.77
2018-08-31T01:58:56.893Z,958.75
2018-08-31T01:59:56.884Z,958.74
2018-08-31T02:00:56.875Z,958.79
2018-08-31T02:01:56.872Z,958.78
2018-08-31T02:02:56.860Z,958.78
2018-08-31T02:03:56.851Z,958.8
2018-08-31T02:04:56.842Z,958.82
2018-08-31T02:05:56.839Z,958.84
2018-08-31T02:06:56.825Z,958.83
2018-08-31T02:07:56.817Z,958.82
2018-08-31T02:08:56.810Z,958.8
2018-08-31T02:09:56.807Z,958.81
2018-08-31T02:10:56.791Z,958.81
2018-08-31T02:11:56.785Z,958.8
2018-08-31T02:12:56.775Z,958.78
2018-08-31T02:13:56.768Z,958.79
2018-08-31T02:14:56.759Z,958.8
2018-08-31T02:15:56.751Z,958.8
2018-08-31T02:16:56.744Z,958.76
2018-08-31T02:17:56.735Z,958.77
2018-08-31T02:18:56.726Z,958.74
2018-08-31T02:19:56.721Z,958.78
2018-08-31T02:20:56.711Z,958.8
2018-08-31T02:21:56.702Z,958.81
2018-08-31T02:22:56.695Z,958.76
2018-08-31T02:23:56.687Z,958.72
2018-08-31T02:24:56.678Z,958.7
2018-08-31T02:25:56.669Z,958.71
2018-08-31T02:26:56.661Z,958.65
2018-08-31T02:27:56.658Z,958.61
2018-08-31T02:28:56.645Z,958.63
2018-08-31T02:29:56.637Z,958.63
2018-08-31T02:30:56.630Z,958.67
2018-08-31T02:31:56.621Z,958.66
2018-08-31T02:32:56.616Z,958.68
2018-08-31T02:33:56.606Z,958.64
2018-08-31T02:34:56.597Z,958.64
2018-08-31T02:35:56.590Z,958.63
2018-08-31T02:36:56.584Z,958.6
2018-08-31T02:37:56.572Z,958.59
2018-08-31T02:38:56.566Z,958.58
2018-08-31T02:39:56.557Z,958.61
2018-08-31T02:40:56.549Z,958.61
2018-08-31T02:41:56.542Z,958.6
2018-08-31T02:42:56.535Z,958.61
2018-08-31T02:43:56.531Z,958.58
2018-08-31T02:44:56.520Z,958.53
2018-08-31T02:45:56.511Z,958.57
2018-08-31T02:46:56.501Z,958.56
2018-08-31T02:47:56.494Z,958.51
2018-08-31T02:48:56.487Z,958.52
2018-08-31T02:49:56.479Z,958.47
2018-08-31T02:50:56.469Z,958.48
2018-08-31T02:51:56.463Z,958.42
2018-08-31T02:52:56.458Z,958.47
2018-08-31T02:53:56.447Z,958.48
2018-08-31T02:54:56.437Z,958.48
2018-08-31T02:55:56.428Z,958.43
2018-08-31T02:56:56.423Z,958.42
2018-08-31T02:57:56.413Z,958.45
2018-08-31T02:58:56.406Z,958.49
2018-08-31T02:59:56.398Z,958.46
2018-08-31T03:00:56.390Z,958.52
2018-08-31T03:01:56.381Z,958.49
2018-08-31T03:02:56.372Z,958.51
2018-08-31T03:03:56.364Z,958.5
2018-08-31T03:04:56.361Z,958.51
2018-08-31T03:05:56.347Z,958.49
2018-08-31T03:06:56.341Z,958.49
2018-08-31T03:07:56.332Z,958.54
2018-08-31T03:08:56.323Z,958.56
2018-08-31T03:09:56.315Z,958.56
2018-08-31T03:10:56.308Z,958.57
2018-08-31T03:11:56.299Z,958.55
2018-08-31T03:12:56.288Z,958.52
2018-08-31T03:13:56.282Z,958.53
2018-08-31T03:14:56.273Z,958.51
2018-08-31T03:15:56.264Z,958.54
2018-08-31T03:16:56.255Z,958.54
2018-08-31T03:17:56.249Z,958.51
2018-08-31T03:18:56.239Z,958.51
2018-08-31T03:19:56.231Z,958.54
2018-08-31T03:20:56.221Z,958.5
2018-08-31T03:21:56.216Z,958.48
2018-08-31T03:22:56.207Z,958.43
2018-08-31T03:23:56.196Z,958.4
2018-08-31T03:24:56.189Z,958.44
2018-08-31T03:25:56.179Z,958.4
2018-08-31T03:26:56.173Z,958.4
2018-08-31T03:27:56.164Z,958.42
2018-08-31T03:28:56.154Z,958.42
2018-08-31T03:29:56.145Z,958.4
2018-08-31T03:30:56.138Z,958.45
2018-08-31T03:31:56.129Z,958.46
2018-08-31T03:32:56.119Z,958.53
2018-08-31T03:33:56.117Z,958.55
2018-08-31T03:34:56.103Z,958.53
2018-08-31T03:35:56.099Z,958.52
2018-08-31T03:36:56.097Z,958.57
2018-08-31T03:37:56.078Z,958.56
2018-08-31T03:38:56.068Z,958.55
2018-08-31T03:39:56.059Z,958.54
2018-08-31T03:40:56.053Z,958.55
2018-08-31T03:41:56.042Z,958.55
2018-08-31T03:42:56.035Z,958.52
2018-08-31T03:43:56.025Z,958.52
2018-08-31T03:44:56.022Z,958.51
2018-08-31T03:45:56.011Z,958.5
2018-08-31T03:46:56.000Z,958.49
2018-08-31T03:47:55.992Z,958.5
2018-08-31T03:48:55.986Z,958.47
2018-08-31T03:49:55.976Z,958.53
2018-08-31T03:50:55.967Z,958.48
2018-08-31T03:51:55.957Z,958.53
2018-08-31T03:52:55.947Z,958.55
2018-08-31T03:53:55.939Z,958.58
2018-08-31T03:54:55.931Z,958.53
2018-08-31T03:55:55.922Z,958.54
2018-08-31T03:56:55.914Z,958.58
2018-08-31T03:57:55.905Z,958.58
2018-08-31T03:58:55.898Z,958.54
2018-08-31T03:59:55.889Z,958.55
2018-08-31T04:00:55.879Z,958.57
2018-08-31T04:01:55.871Z,958.55
2018-08-31T04:02:55.863Z,958.53
2018-08-31T04:03:55.853Z,958.51
2018-08-31T04:04:55.845Z,958.48
2018-08-31T04:05:55.836Z,958.47
2018-08-31T04:06:55.830Z,958.48
2018-08-31T04:07:55.819Z,958.46
2018-08-31T04:08:55.812Z,958.47
2018-08-31T04:09:55.802Z,958.47
2018-08-31T04:10:55.795Z,958.47
2018-08-31T04:11:55.786Z,958.46
2018-08-31T04:12:55.779Z,958.45
2018-08-31T04:13:55.777Z,958.51
2018-08-31T04:14:55.833Z,958.53
2018-08-31T04:15:55.760Z,958.55
2018-08-31T04:16:55.743Z,958.57
2018-08-31T04:17:55.736Z,958.51
2018-08-31T04:18:55.726Z,958.54
2018-08-31T04:19:55.717Z,958.54
2018-08-31T04:20:55.710Z,958.53
2018-08-31T04:21:55.703Z,958.55
2018-08-31T04:22:55.696Z,958.56
2018-08-31T04:23:55.684Z,958.58
2018-08-31T04:24:55.676Z,958.52
2018-08-31T04:25:55.667Z,958.55
2018-08-31T04:26:55.659Z,958.54
2018-08-31T04:27:55.654Z,958.57
2018-08-31T04:28:55.643Z,958.56
2018-08-31T04:29:55.634Z,958.56
2018-08-31T04:30:55.626Z,958.58
2018-08-31T04:31:55.617Z,958.6
2018-08-31T04:32:55.608Z,958.6
2018-08-31T04:33:55.674Z,958.63
2018-08-31T04:34:55.592Z,958.63
2018-08-31T04:35:55.583Z,958.59
2018-08-31T04:36:55.579Z,958.62
2018-08-31T04:37:55.571Z,958.63
2018-08-31T04:38:55.557Z,958.56
2018-08-31T04:39:55.549Z,958.6
2018-08-31T04:40:55.543Z,958.55
2018-08-31T04:41:55.531Z,958.62
2018-08-31T04:42:55.620Z,958.59
2018-08-31T04:43:55.513Z,958.63
2018-08-31T04:44:55.504Z,958.63
2018-08-31T04:45:55.496Z,958.65
2018-08-31T04:46:55.487Z,958.64
2018-08-31T04:47:55.479Z,958.65
2018-08-31T04:48:55.473Z,958.66
2018-08-31T04:49:55.463Z,958.68
2018-08-31T04:50:55.454Z,958.68
2018-08-31T04:51:55.445Z,958.68
2018-08-31T04:52:55.435Z,958.68
2018-08-31T04:53:55.428Z,958.67
2018-08-31T04:54:55.419Z,958.65
2018-08-31T04:55:55.410Z,958.67
2018-08-31T04:56:55.402Z,958.69
2018-08-31T04:57:55.395Z,958.68
2018-08-31T04:58:55.439Z,958.69
2018-08-31T04:59:55.377Z,958.7
2018-08-31T05:00:55.368Z,958.75
2018-08-31T05:01:55.360Z,958.75
2018-08-31T05:02:55.350Z,958.72
2018-08-31T05:03:55.344Z,958.75
2018-08-31T05:04:55.334Z,958.73
2018-08-31T05:05:55.326Z,958.76
2018-08-31T05:06:55.317Z,958.77
2018-08-31T05:07:55.309Z,958.8
2018-08-31T05:08:55.301Z,958.82
2018-08-31T05:09:55.293Z,958.83
2018-08-31T05:10:55.284Z,958.83
2018-08-31T05:11:55.276Z,958.81
2018-08-31T05:12:55.268Z,958.82
2018-08-31T05:13:55.259Z,958.75
2018-08-31T05:14:55.252Z,958.73
2018-08-31T05:15:55.251Z,958.73
2018-08-31T05:16:55.237Z,958.68
2018-08-31T05:17:55.227Z,958.65
2018-08-31T05:18:55.218Z,958.69
2018-08-31T05:19:55.210Z,958.7
2018-08-31T05:20:55.204Z,958.65
2018-08-31T05:21:55.195Z,958.66
2018-08-31T05:22:55.207Z,958.68
2018-08-31T05:23:55.177Z,958.66
2018-08-31T05:24:55.168Z,958.67
2018-08-31T05:25:55.160Z,958.68
2018-08-31T05:26:55.153Z,958.65
2018-08-31T05:27:55.145Z,958.66
2018-08-31T05:28:55.136Z,958.65
2018-08-31T05:29:55.129Z,958.62
2018-08-31T05:30:55.121Z,958.63
2018-08-31T05:31:55.112Z,958.64
2018-08-31T05:32:55.108Z,958.65
2018-08-31T05:33:55.097Z,958.66
2018-08-31T05:34:55.090Z,958.67
2018-08-31T05:35:55.081Z,958.69
2018-08-31T05:36:55.073Z,958.68
2018-08-31T05:37:55.065Z,958.74
2018-08-31T05:38:55.057Z,958.74
2018-08-31T05:39:55.049Z,958.71
2018-08-31T05:40:55.046Z,958.75
2018-08-31T05:41:55.035Z,958.76
2018-08-31T05:42:55.026Z,958.76
2018-08-31T05:43:55.017Z,958.77
2018-08-31T05:44:55.011Z,958.76
2018-08-31T05:45:55.005Z,958.76
2018-08-31T05:46:54.996Z,958.76
2018-08-31T05:47:54.995Z,958.78
2018-08-31T05:48:54.980Z,958.8
2018-08-31T05:49:54.972Z,958.81
2018-08-31T05:50:54.964Z,958.79
2018-08-31T05:51:54.957Z,958.8
2018-08-31T05:52:54.950Z,958.8
2018-08-31T05:53:54.942Z,958.82
2018-08-31T05:54:54.934Z,958.83
2018-08-31T05:55:54.926Z,958.8
2018-08-31T05:56:54.920Z,958.82
2018-08-31T05:57:54.914Z,958.83
2018-08-31T05:58:54.905Z,958.85
2018-08-31T05:59:54.898Z,958.86
2018-08-31T06:00:54.890Z,958.88
2018-08-31T06:01:54.882Z,958.92
2018-08-31T06:02:54.876Z,958.93
2018-08-31T06:03:54.870Z,958.91
2018-08-31T06:04:54.859Z,958.91
2018-08-31T06:05:54.856Z,958.85
2018-08-31T06:06:54.846Z,958.93
2018-08-31T06:07:54.837Z,958.89
2018-08-31T06:08:54.832Z,958.92
2018-08-31T06:09:54.822Z,958.88
2018-08-31T06:10:54.816Z,958.89
2018-08-31T06:11:54.849Z,958.89
2018-08-31T06:12:54.799Z,958.89
2018-08-31T06:13:54.794Z,958.89
2018-08-31T06:14:54.786Z,958.91
2018-08-31T06:15:54.777Z,958.89
2018-08-31T06:16:54.772Z,958.89
2018-08-31T06:17:54.765Z,958.89
2018-08-31T06:18:54.757Z,958.91
2018-08-31T06:19:54.749Z,958.9
2018-08-31T06:20:54.774Z,958.92
2018-08-31T06:21:54.736Z,958.93
2018-08-31T06:22:54.728Z,958.91
2018-08-31T06:23:54.720Z,958.91
2018-08-31T06:24:54.713Z,958.9
2018-08-31T06:25:54.706Z,958.95
2018-08-31T06:26:54.714Z,958.9
2018-08-31T06:27:54.692Z,958.91
2018-08-31T06:28:54.684Z,958.92
2018-08-31T06:29:54.676Z,958.92
2018-08-31T06:30:54.669Z,958.89
2018-08-31T06:31:54.663Z,958.85
2018-08-31T06:32:54.657Z,958.89
2018-08-31T06:33:54.705Z,958.83
2018-08-31T06:34:54.644Z,958.82
2018-08-31T06:35:54.636Z,958.83
2018-08-31T06:36:54.632Z,958.88
2018-08-31T06:37:54.620Z,958.87
2018-08-31T06:38:54.615Z,958.82
2018-08-31T06:39:54.607Z,958.85
2018-08-31T06:40:54.672Z,958.82
2018-08-31T06:41:54.593Z,958.87
2018-08-31T06:42:54.588Z,958.91
2018-08-31T06:43:54.627Z,958.89
2018-08-31T06:44:54.576Z,958.88
2018-08-31T06:45:54.566Z,958.89
2018-08-31T06:46:54.559Z,958.93
2018-08-31T06:47:54.553Z,958.87
2018-08-31T06:48:54.545Z,958.9
2018-08-31T06:49:54.539Z,958.93
2018-08-31T06:50:54.533Z,958.95
2018-08-31T06:51:54.529Z,958.95
2018-08-31T06:52:54.518Z,959
2018-08-31T06:53:54.512Z,959.04
2018-08-31T06:54:54.508Z,959
2018-08-31T06:55:54.500Z,959.02
2018-08-31T06:56:54.497Z,959.01
2018-08-31T06:57:54.488Z,959
2018-08-31T06:58:54.501Z,958.99
2018-08-31T06:59:54.473Z,958.97
2018-08-31T07:00:54.469Z,958.98
2018-08-31T07:01:54.462Z,959
2018-08-31T07:02:54.453Z,959
2018-08-31T07:03:54.501Z,958.97
2018-08-31T07:04:54.440Z,958.95
2018-08-31T07:05:54.433Z,958.96
2018-08-31T07:06:54.428Z,958.96
2018-08-31T07:07:54.425Z,958.98
2018-08-31T07:08:54.413Z,958.93
2018-08-31T07:09:54.407Z,958.9
2018-08-31T07:10:54.399Z,958.93
2018-08-31T07:11:54.394Z,958.89
2018-08-31T07:12:54.386Z,958.91
2018-08-31T07:13:54.382Z,958.92
2018-08-31T07:14:54.374Z,958.93
2018-08-31T07:15:54.367Z,958.94
2018-08-31T07:16:54.363Z,958.92
2018-08-31T07:17:54.357Z,958.88
2018-08-31T07:18:54.347Z,958.95
2018-08-31T07:19:54.479Z,958.88
2018-08-31T07:20:54.336Z,958.91
2018-08-31T07:21:54.327Z,958.91
2018-08-31T07:22:54.321Z,958.93
2018-08-31T07:23:54.314Z,958.94
2018-08-31T07:24:54.308Z,958.89
2018-08-31T07:25:54.303Z,958.88
2018-08-31T07:26:54.325Z,958.9
2018-08-31T07:27:54.290Z,958.95
2018-08-31T07:28:54.282Z,958.85
2018-08-31T07:29:54.277Z,958.84
2018-08-31T07:30:54.270Z,958.84
2018-08-31T07:31:54.264Z,958.84
2018-08-31T07:32:54.259Z,958.83
2018-08-31T07:33:54.252Z,958.91
2018-08-31T07:34:54.257Z,958.91
2018-08-31T07:35:54.242Z,958.9
2018-08-31T07:36:54.235Z,958.89
2018-08-31T07:37:54.229Z,958.88
2018-08-31T07:38:54.224Z,958.79
2018-08-31T07:39:54.222Z,958.82
2018-08-31T07:40:54.212Z,958.83
2018-08-31T07:41:54.206Z,958.81
2018-08-31T07:42:54.202Z,958.81
2018-08-31T07:43:54.194Z,958.85
2018-08-31T07:44:54.189Z,958.83
2018-08-31T07:45:54.183Z,958.78
2018-08-31T07:46:54.183Z,958.84
2018-08-31T07:47:54.205Z,958.86
2018-08-31T07:48:54.169Z,958.87
2018-08-31T07:49:54.163Z,958.93
2018-08-31T07:50:54.156Z,958.9
2018-08-31T07:51:54.153Z,958.95
2018-08-31T07:52:54.146Z,958.98
2018-08-31T07:53:54.233Z,958.89
2018-08-31T07:54:54.137Z,958.91
2018-08-31T07:55:54.133Z,958.93
2018-08-31T07:56:54.127Z,958.9
2018-08-31T07:57:54.122Z,958.91
2018-08-31T07:58:54.117Z,958.98
2018-08-31T07:59:54.114Z,959
2018-08-31T08:00:54.112Z,959
2018-08-31T08:01:54.103Z,959
2018-08-31T08:02:54.099Z,959.03
2018-08-31T08:03:54.095Z,959.04
2018-08-31T08:04:54.091Z,959.05
2018-08-31T08:05:54.089Z,959.04
2018-08-31T08:06:54.081Z,959.09
2018-08-31T08:07:54.079Z,959.09
2018-08-31T08:08:54.073Z,959.08
2018-08-31T08:09:54.069Z,959.07
2018-08-31T08:10:54.066Z,959.07
2018-08-31T08:11:54.060Z,959.05
2018-08-31T08:12:54.055Z,959.07
2018-08-31T08:13:54.052Z,959.07
2018-08-31T08:14:54.103Z,959.06
2018-08-31T08:15:54.043Z,959.1
2018-08-31T08:16:54.039Z,959.08
2018-08-31T08:17:54.035Z,959.08
2018-08-31T08:18:54.030Z,959.08
2018-08-31T08:19:54.025Z,959.08
2018-08-31T08:20:54.023Z,959.1
2018-08-31T08:21:54.017Z,959.07
2018-08-31T08:22:54.013Z,959.07
2018-08-31T08:23:54.008Z,959.05
2018-08-31T08:24:54.004Z,959.02
2018-08-31T08:25:53.999Z,958.96
2018-08-31T08:26:53.993Z,958.98
2018-08-31T08:27:53.990Z,958.95
2018-08-31T08:28:53.985Z,959
2018-08-31T08:29:53.981Z,958.97
2018-08-31T08:30:53.976Z,958.98
2018-08-31T08:31:53.972Z,958.98
2018-08-31T08:32:53.968Z,959.03
2018-08-31T08:33:53.963Z,959.05
2018-08-31T08:34:53.959Z,959.05
2018-08-31T08:35:53.967Z,959.01
2018-08-31T08:36:53.950Z,959.1
2018-08-31T08:37:53.945Z,959.1
2018-08-31T08:38:53.940Z,959.13
2018-08-31T08:39:53.936Z,959.16
2018-08-31T08:40:53.933Z,959.18
2018-08-31T08:41:53.947Z,959.19
2018-08-31T08:42:53.923Z,959.16
2018-08-31T08:43:53.920Z,959.23
2018-08-31T08:44:53.915Z,959.23
2018-08-31T08:45:53.912Z,959.25
2018-08-31T08:46:53.908Z,959.27
2018-08-31T08:47:53.908Z,959.27
2018-08-31T08:48:53.899Z,959.29
2018-08-31T08:49:53.902Z,959.3
2018-08-31T08:50:53.892Z,959.32
2018-08-31T08:51:53.890Z,959.33
2018-08-31T08:52:53.882Z,959.33
2018-08-31T08:53:53.879Z,959.29
2018-08-31T08:54:53.875Z,959.34
2018-08-31T08:55:53.878Z,959.29
2018-08-31T08:56:53.867Z,959.34
2018-08-31T08:57:53.862Z,959.35
2018-08-31T08:58:53.859Z,959.32
2018-08-31T08:59:53.857Z,959.32
2018-08-31T09:00:53.848Z,959.33
2018-08-31T09:01:53.846Z,959.33
2018-08-31T09:02:53.840Z,959.38
2018-08-31T09:03:53.838Z,959.45
2018-08-31T09:04:53.832Z,959.47
2018-08-31T09:05:53.829Z,959.44
2018-08-31T09:06:53.825Z,959.47
2018-08-31T09:07:53.820Z,959.49
2018-08-31T09:08:53.816Z,959.42
2018-08-31T09:09:53.815Z,959.47
2018-08-31T09:10:53.809Z,959.45
2018-08-31T09:11:53.907Z,959.42
2018-08-31T09:12:53.800Z,959.47
2018-08-31T09:13:53.798Z,959.44
2018-08-31T09:14:53.792Z,959.52
2018-08-31T09:15:53.793Z,959.45
2018-08-31T09:16:53.784Z,959.42
2018-08-31T09:17:53.780Z,959.47
2018-08-31T09:18:53.776Z,959.43
2018-08-31T09:19:53.776Z,959.41
2018-08-31T09:20:53.770Z,959.39
2018-08-31T09:21:53.766Z,959.41
2018-08-31T09:22:53.761Z,959.38
2018-08-31T09:23:53.760Z,959.32
2018-08-31T09:24:53.755Z,959.39
2018-08-31T09:25:53.752Z,959.38
2018-08-31T09:26:53.749Z,959.39
2018-08-31T09:27:53.745Z,959.34
2018-08-31T09:28:53.743Z,959.36
2018-08-31T09:29:53.747Z,959.37
2018-08-31T09:30:53.734Z,959.36
2018-08-31T09:31:53.731Z,959.35
2018-08-31T09:32:53.727Z,959.26
2018-08-31T09:33:53.729Z,959.31
2018-08-31T09:34:53.721Z,959.27
2018-08-31T09:35:53.720Z,959.26
2018-08-31T09:36:53.714Z,959.31
2018-08-31T09:37:53.711Z,959.27
2018-08-31T09:38:53.707Z,959.33
2018-08-31T09:39:53.704Z,959.38
2018-08-31T09:40:53.701Z,959.36
2018-08-31T09:41:53.697Z,959.32
2018-08-31T09:42:53.698Z,959.31
2018-08-31T09:43:53.816Z,959.34
2018-08-31T09:44:53.687Z,959.3
2018-08-31T09:45:53.686Z,959.31
2018-08-31T09:46:53.681Z,959.4
2018-08-31T09:47:53.677Z,959.35
2018-08-31T09:48:53.673Z,959.37
2018-08-31T09:49:53.670Z,959.42
2018-08-31T09:50:53.667Z,959.4
2018-08-31T09:51:53.664Z,959.4
2018-08-31T09:52:53.659Z,959.31
2018-08-31T09:53:53.656Z,959.29
2018-08-31T09:54:53.653Z,959.28
2018-08-31T09:55:53.649Z,959.3
2018-08-31T09:56:53.650Z,959.25
2018-08-31T09:57:53.648Z,959.26
2018-08-31T09:58:53.641Z,959.26
2018-08-31T09:59:53.637Z,959.24
2018-08-31T10:00:53.634Z,959.24
2018-08-31T10:01:53.633Z,959.24
2018-08-31T10:02:53.628Z,959.23
2018-08-31T10:03:53.627Z,959.26
2018-08-31T10:04:53.623Z,959.26
2018-08-31T10:05:53.619Z,959.2
2018-08-31T10:06:53.620Z,959.23
2018-08-31T10:07:53.614Z,959.25
2018-08-31T10:08:53.611Z,959.19
2018-08-31T10:09:53.608Z,959.25
2018-08-31T10:10:53.718Z,959.27
2018-08-31T10:11:53.603Z,959.28
2018-08-31T10:12:53.597Z,959.26
2018-08-31T10:13:53.597Z,959.26
2018-08-31T10:14:53.592Z,959.21
2018-08-31T10:15:53.589Z,959.2
2018-08-31T10:16:53.587Z,959.16
2018-08-31T10:17:53.583Z,959.14
2018-08-31T10:18:53.633Z,959.15
2018-08-31T10:19:53.580Z,959.13
2018-08-31T10:20:53.575Z,959.15
2018-08-31T10:21:53.572Z,959.11
2018-08-31T10:22:53.568Z,959.09
2018-08-31T10:23:53.566Z,959.11
2018-08-31T10:24:53.564Z,959.12
2018-08-31T10:25:53.560Z,959.14
2018-08-31T10:26:53.558Z,959.13
2018-08-31T10:27:53.555Z,959.17
2018-08-31T10:28:53.553Z,959.16
2018-08-31T10:29:53.549Z,959.08
2018-08-31T10:30:53.547Z,959.11
2018-08-31T10:31:53.546Z,959.08
2018-08-31T10:32:53.541Z,959.02
2018-08-31T10:33:53.540Z,959.08
2018-08-31T10:34:53.535Z,959.13
2018-08-31T10:35:53.534Z,959.12
2018-08-31T10:36:53.531Z,959.13
2018-08-31T10:37:53.529Z,959.13
2018-08-31T10:38:53.526Z,959.11
2018-08-31T10:39:53.523Z,959.11
2018-08-31T10:40:53.522Z,959.05
2018-08-31T10:41:53.519Z,959.04
2018-08-31T10:42:53.515Z,959.01
2018-08-31T10:43:53.513Z,959.04
2018-08-31T10:44:53.511Z,959.08
2018-08-31T10:45:53.507Z,959.03
2018-08-31T10:46:53.507Z,959.04
2018-08-31T10:47:53.504Z,959.03
2018-08-31T10:48:53.501Z,959
2018-08-31T10:49:53.503Z,959
2018-08-31T10:50:53.495Z,959.01
2018-08-31T10:51:53.492Z,959.02
2018-08-31T10:52:53.489Z,959.02
2018-08-31T10:53:53.488Z,959.02
2018-08-31T10:54:53.485Z,959.03
2018-08-31T10:55:53.482Z,959.05
2018-08-31T10:56:53.479Z,959.06
2018-08-31T10:57:53.478Z,959.05
2018-08-31T10:58:53.475Z,959.11
2018-08-31T10:59:53.472Z,959.08
2018-08-31T11:00:53.470Z,959.11
2018-08-31T11:01:53.467Z,959.09
2018-08-31T11:02:53.464Z,959.08
2018-08-31T11:03:53.462Z,959.06
2018-08-31T11:04:53.459Z,959.05
2018-08-31T11:05:53.456Z,959
2018-08-31T11:06:53.454Z,958.98
2018-08-31T11:07:53.452Z,958.98
2018-08-31T11:08:53.448Z,958.94
2018-08-31T11:09:53.446Z,959.03
2018-08-31T11:10:53.444Z,959
2018-08-31T11:11:53.444Z,958.99
2018-08-31T11:12:53.487Z,959.02
2018-08-31T11:13:53.437Z,959.03
2018-08-31T11:14:53.433Z,959
2018-08-31T11:15:53.431Z,959.03
2018-08-31T11:16:53.427Z,958.99
2018-08-31T11:17:53.425Z,958.95
2018-08-31T11:18:53.463Z,958.95
2018-08-31T11:19:53.421Z,958.9
2018-08-31T11:20:53.419Z,958.85
2018-08-31T11:21:53.417Z,958.89
2018-08-31T11:22:53.413Z,958.83
2018-08-31T11:23:53.411Z,958.93
2018-08-31T11:24:53.408Z,958.91
2018-08-31T11:25:53.405Z,958.86
2018-08-31T11:26:53.402Z,958.84
2018-08-31T11:27:53.456Z,958.86
2018-08-31T11:28:53.399Z,958.84
2018-08-31T11:29:53.394Z,958.86
2018-08-31T11:30:53.393Z,958.9
2018-08-31T11:31:53.391Z,958.88
2018-08-31T11:32:53.387Z,958.9
2018-08-31T11:33:53.383Z,958.83
2018-08-31T11:34:53.381Z,958.82
2018-08-31T11:35:53.378Z,958.83
2018-08-31T11:36:53.373Z,958.85
2018-08-31T11:37:53.371Z,958.81
2018-08-31T11:38:53.370Z,958.78
2018-08-31T11:39:53.368Z,958.86
2018-08-31T11:40:53.362Z,958.83
2018-08-31T11:41:53.361Z,958.82
2018-08-31T11:42:53.358Z,958.83
2018-08-31T11:43:53.356Z,958.79
2018-08-31T11:44:53.351Z,958.78
2018-08-31T11:45:53.349Z,958.81
2018-08-31T11:46:53.346Z,958.83
2018-08-31T11:47:53.343Z,958.76
2018-08-31T11:48:53.343Z,958.82
2018-08-31T11:49:53.337Z,958.79
2018-08-31T11:50:53.336Z,958.82
2018-08-31T11:51:53.330Z,958.84
2018-08-31T11:52:53.331Z,958.81
2018-08-31T11:53:53.325Z,958.87
2018-08-31T11:54:53.323Z,958.9
2018-08-31T11:55:53.317Z,958.88
2018-08-31T11:56:53.316Z,958.86
2018-08-31T11:57:53.314Z,958.88
2018-08-31T11:58:53.310Z,958.87
2018-08-31T11:59:53.307Z,958.88
2018-08-31T12:00:53.307Z,958.94
2018-08-31T12:01:53.308Z,958.94
2018-08-31T12:02:53.297Z,958.9
2018-08-31T12:03:53.293Z,958.88
2018-08-31T12:04:53.300Z,958.86
2018-08-31T12:05:53.288Z,958.83
2018-08-31T12:06:53.287Z,958.82
2018-08-31T12:07:53.361Z,958.82
2018-08-31T12:08:53.278Z,958.85
2018-08-31T12:09:53.277Z,958.82
2018-08-31T12:10:53.274Z,958.81
2018-08-31T12:11:53.272Z,958.81
2018-08-31T12:12:53.267Z,958.82
2018-08-31T12:13:53.263Z,958.83
2018-08-31T12:14:53.260Z,958.85
2018-08-31T12:15:53.258Z,958.84
2018-08-31T12:16:53.255Z,958.86
2018-08-31T12:17:53.252Z,958.87
2018-08-31T12:18:53.248Z,958.87
2018-08-31T12:19:53.245Z,958.85
2018-08-31T12:20:53.270Z,958.86
2018-08-31T12:21:53.240Z,958.88
2018-08-31T12:22:53.237Z,958.82
2018-08-31T12:23:53.235Z,958.83
2018-08-31T12:24:53.231Z,958.85
2018-08-31T12:25:53.228Z,958.84
2018-08-31T12:26:53.225Z,958.85
2018-08-31T12:27:53.221Z,958.85
2018-08-31T12:28:53.219Z,958.84
2018-08-31T12:29:53.216Z,958.81
2018-08-31T12:30:53.213Z,958.87
2018-08-31T12:31:53.213Z,958.84